METAR (acronimo di METeorological Air Report) è un messaggio meteo emesso nella maggior parte dei casi in ambito aeroportuale

LEMD - Madrid-Barajas, Spagna
Ultimo Aggiornamento: Giovedì 04 Giugno 2020 02:30 CEST
Prevalentemente Nuvoloso
Prevalentemente Nuvoloso
 Wind from calm
Vento: Calma
Temperatura: 17°C
Punto di Rugiada: 17°C
Umidità: 100%
Barometro: 1007 hPa
Nuvole: Prevalentemente Nuvoloso
Visibilità: 10 km
Nuvole nel Dettaglio: Qualche Nuvola 1372 m
Parzialmente Nuvoloso 1981 m
Prevalentemente Nuvoloso 2438 m
2020/06/04 00:30 LEMD 040030Z 00000KT 9999 FEW045 SCT065 BKN080 17/17 Q1007 R99/29//95 NOSIG
LPPT - Lisbona, Portogallo
Ultimo Aggiornamento: Giovedì 04 Giugno 2020 02:30 CEST
Parzialmente Nuvoloso
Parzialmente Nuvoloso
 Wind from Ovest-Nord-Ovest
Vento: Ovest-Nord-Ovest 9 km/h
Temperatura: 18°C
Punto di Rugiada: 16°C
Umidità: 88%
Barometro: 1012 hPa
Nuvole: Parzialmente Nuvoloso
Visibilità: 10 km
Nuvole nel Dettaglio: Qualche Nuvola 244 m
Parzialmente Nuvoloso 1219 m
2020/06/04 00:30 LPPT 040030Z 30005KT 9999 FEW008 SCT040 18/16 Q1012
LFPG - Parigi Charles de Gaulle, Francia
Ultimo Aggiornamento: Giovedì 04 Giugno 2020 02:30 CEST
Pioggia Leggera, Temporale
Pioggia Leggera, Temporale
 Wind from Nord-Nord-Ovest
Vento: Nord-Nord-Ovest 9 km/h
Temperatura: 14°C
Punto di Rugiada: 13°C
Umidità: 94%
Barometro: 1001 hPa
Condizioni: Pioggia Leggera
Nuvole: Temporale
Visibilità: 10 km
2020/06/04 00:30 LFPG 040030Z AUTO 33005KT 250V010 9999 -RA ///CB 14/13 Q1001 TEMPO 4000 SHRA
 
LSZB - Berna, Svizzera
Ultimo Aggiornamento: Giovedì 04 Giugno 2020 02:20 CEST
Prevalentemente Nuvoloso
Prevalentemente Nuvoloso
 Wind from Nord-Ovest
Vento: Nord-Ovest 4 km/h
Temperatura: 13°C
Punto di Rugiada: 13°C
Umidità: 100%
Barometro: 1002 hPa
Nuvole: Prevalentemente Nuvoloso
Visibilità: 10 km
Nuvole nel Dettaglio: Parzialmente Nuvoloso 3658 m
Parzialmente Nuvoloso 3962 m
Prevalentemente Nuvoloso 4267 m
2020/06/04 00:20 LSZB 040020Z AUTO 32002KT 9999 SCT120 SCT130 BKN140 13/13 Q1002
LOWW - Vienna-Schwechat, Austria
Ultimo Aggiornamento: Giovedì 04 Giugno 2020 02:20 CEST
Sereno
Sereno
 Wind from Nord-Nord-Est
Vento: Nord-Nord-Est 6 km/h
Temperatura: 11°C
Punto di Rugiada: 10°C
Umidità: 94%
Barometro: 1002 hPa
Condizioni: Sereno
Visibilità: superiore a 10 km
2020/06/04 00:20 LOWW 040020Z 02003KT CAVOK 11/10 Q1002 NOSIG
LKPR - Praga-Ruzyne, Repubblica Ceca
Ultimo Aggiornamento: Giovedì 04 Giugno 2020 02:30 CEST
Sereno
Sereno
 Wind from Sud-Ovest
Vento: Sud-Ovest 11 km/h
Temperatura: 9°C
Wind Chill: 7°C
Punto di Rugiada: 8°C
Umidità: 94%
Barometro: 1001 hPa
Condizioni: Sereno
Visibilità: superiore a 10 km
2020/06/04 00:30 LKPR 040030Z 22006KT 190V260 CAVOK 09/08 Q1001 NOSIG
 
LHBP - Budapest-Ferihegy, Ungheria
Ultimo Aggiornamento: Giovedì 04 Giugno 2020 02:30 CEST
Sereno
Sereno
 Wind from Est-Nord-Est
Vento: Est-Nord-Est 4 km/h
Temperatura: 9°C
Punto di Rugiada: 8°C
Umidità: 94%
Barometro: 1003 hPa
Condizioni: Sereno
Visibilità: superiore a 10 km
2020/06/04 00:30 LHBP 040030Z 06002KT CAVOK 09/08 Q1003 NOSIG
UUEE - Mosca-Seremetevo, Russia
Ultimo Aggiornamento: Giovedì 04 Giugno 2020 02:30 CEST
Pioggia Leggera, Nuvoloso
Pioggia Leggera, Nuvoloso
 Wind from Nord-Est
Vento: Nord-Est 14 km/h
Temperatura: 13°C
Punto di Rugiada: 13°C
Umidità: 100%
Barometro: 1000 hPa
Condizioni: Pioggia Leggera
Nuvole: Nuvoloso
Visibilità: 4 km
Nuvole nel Dettaglio: Nuvoloso 122 m
2020/06/04 00:30 UUEE 040030Z 04004MPS 3700 -RA OVC004 13/13 Q1000 R06R/290245 NOSIG
EYVI - Vilnius, Lituania
Ultimo Aggiornamento: Giovedì 04 Giugno 2020 02:20 CEST
Prevalentemente Nuvoloso
Prevalentemente Nuvoloso
 Wind from Est
Vento: Est 7 km/h
Temperatura: 8°C
Wind Chill: 7°C
Punto di Rugiada: 8°C
Umidità: 100%
Barometro: 1003 hPa
Nuvole: Prevalentemente Nuvoloso
Visibilità: 10 km
Nuvole nel Dettaglio: Qualche Nuvola 122 m
Parzialmente Nuvoloso 1646 m
Prevalentemente Nuvoloso 1981 m
2020/06/04 00:20 EYVI 040020Z 08004KT 9999 FEW004 SCT054 BKN065 08/08 Q1003 NOSIG
 
EVRA - Riga, Lettonia
Ultimo Aggiornamento: Giovedì 04 Giugno 2020 02:20 CEST
Qualche Nuvola
Qualche Nuvola
 Wind from Nord-Est
Vento: Nord-Est 6 km/h
Temperatura: 10°C
Punto di Rugiada: 8°C
Umidità: 88%
Barometro: 1005 hPa
Nuvole: Qualche Nuvola
Visibilità: 10 km
Nuvole nel Dettaglio: Qualche Nuvola 1372 m
2020/06/04 00:20 EVRA 040020Z 04003KT 9999 FEW045 10/08 Q1005 NOSIG
EETN - Tallinn, Estonia
Ultimo Aggiornamento: Giovedì 04 Giugno 2020 02:20 CEST
Prevalentemente Nuvoloso
Prevalentemente Nuvoloso
 Wind from Est-Nord-Est
Vento: Est-Nord-Est 7 km/h
Temperatura: 12°C
Punto di Rugiada: 8°C
Umidità: 77%
Barometro: 1008 hPa
Nuvole: Prevalentemente Nuvoloso
Visibilità: 10 km
Nuvole nel Dettaglio: Prevalentemente Nuvoloso 1433 m
2020/06/04 00:20 EETN 040020Z AUTO 07004KT 9999 BKN047/// 12/08 Q1008
EKCH - Copenaghen, Danimarca
Ultimo Aggiornamento: Giovedì 04 Giugno 2020 02:20 CEST
Sereno
Sereno
 Wind from Est
Vento: Est 15 km/h
Temperatura: 11°C
Punto di Rugiada: 6°C
Umidità: 72%
Barometro: 1004 hPa
Nuvole: Sereno
Visibilità: 10 km
2020/06/04 00:20 EKCH 040020Z AUTO 10008KT 9999 NCD 11/06 Q1004 NOSIG
 
ESSA - Stockholm Arlanda, Svezia
Ultimo Aggiornamento: Giovedì 04 Giugno 2020 02:20 CEST
Sereno
Sereno
 Wind from Est-Nord-Est
Vento: Est-Nord-Est 9 km/h
Temperatura: 3°C
Wind Chill: 0°C
Punto di Rugiada: 2°C
Umidità: 93%
Barometro: 1008 hPa
Condizioni: Sereno
Visibilità: superiore a 10 km
2020/06/04 00:20 ESSA 040020Z 06005KT CAVOK 03/02 Q1008 NOSIG
EDDT - Berlin Tegel, Germania
Ultimo Aggiornamento: Giovedì 04 Giugno 2020 02:20 CEST
Sereno
Sereno
 Wind from Est-Nord-Est
Vento: Est-Nord-Est 6 km/h
Temperatura: 15°C
Punto di Rugiada: 6°C
Umidità: 55%
Barometro: 1000 hPa
Condizioni: Sereno
Visibilità: superiore a 10 km
2020/06/04 00:20 EDDT 040020Z 07003KT CAVOK 15/06 Q1000
EGLL - Londra-Heathrow, Inghilterra
Ultimo Aggiornamento: Giovedì 04 Giugno 2020 02:20 CEST
Pioggia Leggera, Nuvoloso
Pioggia Leggera, Nuvoloso
 Wind from Nord
Vento: Nord 15 km/h
Temperatura: 11°C
Punto di Rugiada: 9°C
Umidità: 88%
Barometro: 1007 hPa
Condizioni: Pioggia Leggera
Nuvole: Nuvoloso
Visibilità: 10 km
Nuvole nel Dettaglio: Prevalentemente Nuvoloso 335 m
Nuvoloso 457 m
2020/06/04 00:20 EGLL 040020Z AUTO 36008KT 320V040 9999 -RA BKN011 OVC015 11/09 Q1007
 
EGPH - Edinburgh, Scotland
Ultimo Aggiornamento: Giovedì 04 Giugno 2020 02:20 CEST
Prevalentemente Nuvoloso
Prevalentemente Nuvoloso
 Wind from Ovest-Sud-Ovest
Vento: Ovest-Sud-Ovest 9 km/h
Temperatura: 7°C
Wind Chill: 6°C
Punto di Rugiada: 6°C
Umidità: 93%
Barometro: 1010 hPa
Nuvole: Prevalentemente Nuvoloso
Visibilità: 10 km
Nuvole nel Dettaglio: Prevalentemente Nuvoloso 823 m
2020/06/04 00:20 EGPH 040020Z 25005KT 9999 BKN027 07/06 Q1010
EPWA - Varsavia-Chopin, Polonia
Ultimo Aggiornamento: Giovedì 04 Giugno 2020 02:30 CEST
Sereno
Sereno
 Wind from Est
Vento: Est 2 km/h
Temperatura: 8°C
Punto di Rugiada: 7°C
Umidità: 93%
Barometro: 1003 hPa
Condizioni: Sereno
Visibilità: superiore a 10 km
2020/06/04 00:30 EPWA 040030Z 08001KT CAVOK 08/07 Q1003 NOSIG
ENGM - Oslo-Gardermoen, Norvegia
Ultimo Aggiornamento: Giovedì 04 Giugno 2020 02:20 CEST
Prevalentemente Nuvoloso
Prevalentemente Nuvoloso
 Wind from Est
Vento: Est 7 km/h
Temperatura: 14°C
Punto di Rugiada: 4°C
Umidità: 51%
Barometro: 1004 hPa
Nuvole: Prevalentemente Nuvoloso
Visibilità: 10 km
Nuvole nel Dettaglio: Parzialmente Nuvoloso 1433 m
Prevalentemente Nuvoloso 1798 m
2020/06/04 00:20 ENGM 040020Z 10004KT 9999 SCT047 BKN059 14/04 Q1004
 
LJLJ - Ljubljana Joze Pucnik, Slovenia
Ultimo Aggiornamento: Giovedì 04 Giugno 2020 02:30 CEST
Pioggia Leggera, Acquazzoni, Prevalentemente Nuvoloso
Pioggia Leggera, Acquazzoni, Prevalentemente Nuvoloso
 Wind from Sud-Est
Vento: Sud-Est 7 km/h
Temperatura: 14°C
Punto di Rugiada: 13°C
Umidità: 94%
Barometro: 1006 hPa
Condizioni: Pioggia Leggera, Acquazzoni
Nuvole: Prevalentemente Nuvoloso
Visibilità: 10 km
Nuvole nel Dettaglio: Qualche Nuvola 1219 m
Prevalentemente Nuvoloso 1981 m
2020/06/04 00:30 LJLJ 040030Z 14004KT 9999 -SHRA FEW040TCU BKN065 14/13 Q1006 NOSIG
LYBE - Belgrado-Nikola Tesla, Serbia
Ultimo Aggiornamento: Giovedì 04 Giugno 2020 02:30 CEST
Sereno
Sereno
 Wind from Sud-Sud-Est
Vento: Sud-Sud-Est 7 km/h
Temperatura: 13°C
Punto di Rugiada: 12°C
Umidità: 94%
Barometro: 1006 hPa
Condizioni: Sereno
Visibilità: superiore a 10 km
2020/06/04 00:30 LYBE 040030Z 16004KT CAVOK 13/12 Q1006 NOSIG
LDZA - Zagabria-Franjo Tudman, Croazia
Ultimo Aggiornamento: Giovedì 04 Giugno 2020 02:30 CEST
Temporale Leggero, Pioggia, Qualche Nuvola
Temporale Leggero, Pioggia, Qualche Nuvola
 Wind from Ovest
Vento: Ovest 7 km/h
Temperatura: 14°C
Punto di Rugiada: 12°C
Umidità: 88%
Barometro: 1006 hPa
Condizioni: Temporale Leggero, Pioggia
Nuvole: Qualche Nuvola
Visibilità: 10 km
Nuvole nel Dettaglio: Qualche Nuvola 914 m
2020/06/04 00:30 LDZA 040030Z 26004KT 230V290 9999 -TSRA FEW030CB 14/12 Q1006 RERA BECMG NSW FEW030
 
LQSA - Sarajevo, Bosnia-Erzegovina
Ultimo Aggiornamento: Mercoledì 03 Giugno 2020 18:30 CEST
Dati non Recenti
Temporale Leggero, Pioggia, Prevalentemente Nuvoloso
Temporale Leggero, Pioggia, Prevalentemente Nuvoloso
 Wind from Nord-Nord-Ovest
Vento: Nord-Nord-Ovest 19 km/h, Raffica: 46 km/h
Temperatura: 17°C
Punto di Rugiada: 11°C
Umidità: 68%
Barometro: 1009 hPa
Condizioni: Temporale Leggero, Pioggia
Nuvole: Prevalentemente Nuvoloso
Visibilità: 10 km
Nuvole nel Dettaglio: Qualche Nuvola 914 m
Parzialmente Nuvoloso 1219 m
Prevalentemente Nuvoloso 1524 m
2020/06/03 16:30 LQSA 031630Z 34010G25KT 280V020 9999 -TSRA FEW030CB SCT040 BKN050 17/11 Q1009 NOSIG
LATI - Tirana, Albania
Ultimo Aggiornamento: Giovedì 04 Giugno 2020 02:20 CEST
Qualche Nuvola
Qualche Nuvola
 Wind from Sud-Sud-Est
Vento: Sud-Sud-Est 6 km/h
Temperatura: 12°C
Punto di Rugiada: 10°C
Umidità: 88%
Barometro: 1011 hPa
Nuvole: Qualche Nuvola
Visibilità: 10 km
Nuvole nel Dettaglio: Qualche Nuvola 2316 m
2020/06/04 00:20 LATI 040020Z 15003KT 100V190 9999 FEW076 12/10 Q1011 NOSIG
LEPA - Palma de Mallorca, Spagna
Ultimo Aggiornamento: Giovedì 04 Giugno 2020 02:30 CEST
Qualche Nuvola
Qualche Nuvola
 Wind from varies
Vento: variabile 2 km/h
Temperatura: 19°C
Punto di Rugiada: 17°C
Umidità: 88%
Barometro: 1004 hPa
Nuvole: Qualche Nuvola
Visibilità: 10 km
Nuvole nel Dettaglio: Qualche Nuvola 610 m
2020/06/04 00:30 LEPA 040030Z VRB01KT 9999 FEW020 19/17 Q1004 NOSIG
 
GCLP - Gran Canaria, Spagna
Ultimo Aggiornamento: Giovedì 04 Giugno 2020 02:30 CEST
Qualche Nuvola
Qualche Nuvola
 Wind from calm
Vento: Calma
Temperatura: 22°C
Punto di Rugiada: 18°C
Umidità: 78%
Barometro: 1015 hPa
Nuvole: Qualche Nuvola
Visibilità: 10 km
Nuvole nel Dettaglio: Qualche Nuvola 762 m
2020/06/04 00:30 GCLP 040030Z 00000KT 9999 FEW025 22/18 Q1015 NOSIG
LXGB - Gibraltar International Airport
Ultimo Aggiornamento: Giovedì 04 Giugno 2020 01:50 CEST
Sereno
Sereno
 Wind from Ovest
Vento: Ovest 35 km/h
Temperatura: 20°C
Punto di Rugiada: 16°C
Umidità: 78%
Barometro: 1011 hPa
Nuvole: Sereno
Visibilità: 10 km
2020/06/03 23:50 LXGB 032350Z AUTO 27019KT 9999 // NCD 20/16 Q1011
LGAV - Atene-Eleftherios Venizelos, Grecia
Ultimo Aggiornamento: Giovedì 04 Giugno 2020 02:20 CEST
Qualche Nuvola
Qualche Nuvola
 Wind from varies
Vento: variabile 4 km/h
Temperatura: 15°C
Punto di Rugiada: 12°C
Umidità: 82%
Barometro: 1011 hPa
Nuvole: Qualche Nuvola
Visibilità: 10 km
Nuvole nel Dettaglio: Qualche Nuvola 914 m
2020/06/04 00:20 LGAV 040020Z VRB02KT 9999 FEW030 15/12 Q1011 NOSIG